Time;durP1;ratioP1;P1;durP2;ratioP2;P2;SDS_P1;SDS_P2;PMS_P1;PMS_P2;Temp;Humidity;BMP_temperature;BMP_pressure;BME280_temperature;BME280_humidity;BME280_pressure;Samples;Min_cycle;Max_cycle;Signal;HPM_P1;HPM_P2
2022/05/26 00:02:00;;;;;;;3.70;2.77;;;12.90;99.90;;;;;;5078581;28;20221;-70
2022/05/26 00:04:28;;;;;;;4.33;2.73;;;12.90;99.90;;;;;;5077946;28;20212;-70
2022/05/26 00:06:56;;;;;;;2.93;2.60;;;12.90;99.90;;;;;;5089296;28;20545;-69
2022/05/26 00:09:23;;;;;;;3.23;2.93;;;12.80;99.90;;;;;;5076887;28;20201;-69
2022/05/26 00:11:50;;;;;;;3.77;2.27;;;12.80;99.90;;;;;;5078149;28;20660;-70
2022/05/26 00:14:18;;;;;;;2.87;2.20;;;12.80;99.90;;;;;;5076103;28;20341;-69
2022/05/26 00:16:46;;;;;;;2.03;1.93;;;12.80;99.90;;;;;;5066111;28;20241;-69
2022/05/26 00:19:16;;;;;;;2.30;2.10;;;12.80;99.90;;;;;;5071915;28;20276;-71
2022/05/26 00:21:46;;;;;;;3.13;2.70;;;12.80;99.90;;;;;;5076866;28;20255;-70
2022/05/26 00:24:14;;;;;;;2.50;2.30;;;12.70;99.90;;;;;;5078463;28;20209;-69
2022/05/26 00:26:41;;;;;;;3.13;2.83;;;12.70;99.90;;;;;;5078073;28;20237;-70
2022/05/26 00:29:07;;;;;;;3.00;2.70;;;12.70;99.90;;;;;;5076164;28;20261;-69
2022/05/26 00:31:34;;;;;;;4.07;3.20;;;12.60;99.90;;;;;;5077601;28;20662;-70
2022/05/26 00:34:01;;;;;;;3.30;3.00;;;12.60;99.90;;;;;;5077445;28;20201;-69
2022/05/26 00:36:42;;;;;;;3.50;3.10;;;12.50;99.90;;;;;;5078751;28;20263;-69
2022/05/26 00:39:13;;;;;;;3.20;2.90;;;12.40;99.90;;;;;;5077695;28;20209;-70
2022/05/26 00:41:43;;;;;;;2.93;2.70;;;12.40;99.90;;;;;;5077888;28;20221;-69
2022/05/26 00:44:11;;;;;;;4.00;2.87;;;12.40;99.90;;;;;;5077192;28;20211;-70
2022/05/26 00:46:49;;;;;;;3.20;2.90;;;12.40;99.90;;;;;;5077326;28;20214;-69
2022/05/26 00:49:24;;;;;;;3.43;3.13;;;12.30;99.90;;;;;;5077209;28;20251;-70
2022/05/26 00:51:51;;;;;;;3.40;3.00;;;12.30;99.90;;;;;;5076649;28;20193;-69
2022/05/26 00:54:23;;;;;;;2.80;2.60;;;12.30;99.90;;;;;;5077253;28;20288;-70
2022/05/26 00:56:55;;;;;;;3.53;3.10;;;12.20;99.90;;;;;;5069963;28;20251;-70
2022/05/26 00:59:28;;;;;;;4.47;3.83;;;12.20;99.90;;;;;;5077261;28;20200;-70
2022/05/26 01:01:58;;;;;;;3.33;3.03;;;12.10;99.90;;;;;;5076332;28;20304;-69
2022/05/26 01:04:28;;;;;;;3.63;3.10;;;12.10;99.90;;;;;;5077723;28;20205;-69
2022/05/26 01:07:01;;;;;;;3.00;2.80;;;12.10;99.90;;;;;;5090730;28;20219;-69
2022/05/26 01:09:29;;;;;;;5.03;3.20;;;12.10;99.90;;;;;;5080245;28;20265;-69
2022/05/26 01:11:56;;;;;;;3.60;3.30;;;12.00;99.90;;;;;;5074249;28;20216;-69
2022/05/26 01:14:25;;;;;;;3.53;3.20;;;12.00;99.90;;;;;;5078716;28;20252;-71
2022/05/26 01:17:04;;;;;;;3.93;3.53;;;11.90;99.90;;;;;;5078036;28;20205;-70
2022/05/26 01:20:04;;;;;;;3.63;2.97;;;11.90;99.90;;;;;;5077203;28;20201;-69
2022/05/26 01:22:51;;;;;;;3.83;3.33;;;11.90;99.90;;;;;;5077505;28;20232;-70
2022/05/26 01:25:44;;;;;;;3.40;3.07;;;11.90;99.90;;;;;;5077809;28;20288;-70
2022/05/26 01:28:25;;;;;;;3.77;3.30;;;11.80;99.90;;;;;;5074053;28;20200;-69
2022/05/26 01:30:59;;;;;;;3.67;3.37;;;11.80;99.90;;;;;;5077312;28;20264;-68
2022/05/26 01:33:43;;;;;;;3.67;3.37;;;11.80;99.90;;;;;;5076993;28;20237;-70
2022/05/26 01:36:22;;;;;;;4.97;3.47;;;11.70;99.90;;;;;;5071126;28;20209;-70
2022/05/26 01:39:03;;;;;;;3.90;3.57;;;11.70;99.90;;;;;;5075580;28;20664;-70
2022/05/26 01:41:46;;;;;;;3.57;3.23;;;11.70;99.90;;;;;;5072656;28;20212;-70
2022/05/26 01:44:26;;;;;;;3.40;3.10;;;11.70;99.90;;;;;;5058783;28;20226;-70
2022/05/26 01:46:59;;;;;;;4.67;3.90;;;11.70;99.90;;;;;;5071511;28;20684;-69
2022/05/26 01:49:33;;;;;;;5.93;4.00;;;11.70;99.90;;;;;;5076127;28;20197;-69
2022/05/26 01:52:07;;;;;;;4.70;3.43;;;11.70;99.90;;;;;;5069128;28;20287;-68
2022/05/26 01:54:41;;;;;;;4.00;3.60;;;11.70;99.90;;;;;;5065607;28;20227;-69
2022/05/26 01:57:12;;;;;;;4.43;4.03;;;11.60;99.90;;;;;;5075033;28;20264;-69
2022/05/26 01:59:45;;;;;;;3.70;3.30;;;11.60;99.90;;;;;;5068416;28;20209;-71
2022/05/26 02:02:18;;;;;;;3.97;3.50;;;11.60;99.90;;;;;;5076275;28;20209;-69
2022/05/26 02:04:51;;;;;;;4.00;3.60;;;11.60;99.90;;;;;;5069954;28;20654;-70
2022/05/26 02:07:25;;;;;;;3.53;3.23;;;11.60;99.90;;;;;;5070557;28;20291;-69
2022/05/26 02:09:57;;;;;;;3.67;3.37;;;11.60;99.90;;;;;;5077383;28;20317;-69
2022/05/26 02:12:30;;;;;;;4.00;3.43;;;11.60;99.90;;;;;;5076876;28;20256;-70
2022/05/26 02:15:04;;;;;;;4.23;3.63;;;11.60;99.90;;;;;;5075841;28;20647;-70
2022/05/26 02:17:33;;;;;;;4.00;3.53;;;11.50;99.90;;;;;;5077440;28;20216;-70
2022/05/26 02:20:07;;;;;;;4.20;3.80;;;11.50;99.90;;;;;;5067662;28;20206;-69
2022/05/26 02:22:41;;;;;;;5.53;3.77;;;11.50;99.90;;;;;;5076207;28;20212;-69
2022/05/26 02:25:10;;;;;;;3.00;2.70;;;11.50;99.90;;;;;;5072994;28;20208;-70
2022/05/26 02:27:38;;;;;;;3.20;2.90;;;11.50;99.90;;;;;;5077153;28;20278;-70
2022/05/26 02:30:07;;;;;;;3.60;3.30;;;11.50;99.90;;;;;;5062849;28;20253;-69
2022/05/26 02:32:37;;;;;;;4.47;2.90;;;11.50;99.90;;;;;;5075206;28;20634;-69
2022/05/26 02:35:12;;;;;;;5.27;3.23;;;11.50;99.90;;;;;;5081164;28;20204;-70
2022/05/26 02:37:41;;;;;;;3.63;2.90;;;11.50;99.90;;;;;;5078366;28;20201;-69
2022/05/26 02:40:10;;;;;;;3.33;3.03;;;11.50;99.90;;;;;;5075690;28;20205;-68
2022/05/26 02:42:40;;;;;;;4.17;3.17;;;11.50;99.90;;;;;;5074665;28;20806;-69
2022/05/26 02:45:07;;;;;;;3.30;2.67;;;11.50;99.90;;;;;;5075568;28;20730;-69
2022/05/26 02:47:46;;;;;;;3.23;2.93;;;11.50;99.90;;;;;;5073544;28;20232;-69
2022/05/26 02:50:39;;;;;;;4.03;2.93;;;11.50;99.90;;;;;;5070774;28;20225;-69
2022/05/26 02:53:18;;;;;;;3.23;2.20;;;11.60;99.90;;;;;;5069835;28;20228;-70
2022/05/26 02:55:54;;;;;;;3.80;2.57;;;11.60;99.90;;;;;;5075807;28;20744;-70
2022/05/26 02:58:28;;;;;;;2.70;2.50;;;11.60;99.90;;;;;;5075722;28;20197;-70
2022/05/26 03:01:00;;;;;;;2.60;2.40;;;11.60;99.90;;;;;;5076120;28;20261;-70
2022/05/26 03:03:34;;;;;;;3.07;2.80;;;11.60;99.90;;;;;;5075186;28;20620;-69
2022/05/26 03:06:06;;;;;;;2.87;2.60;;;11.60;99.90;;;;;;5074796;28;21533;-70
2022/05/26 03:08:37;;;;;;;3.20;2.90;;;11.60;99.90;;;;;;5072679;28;20205;-69
2022/05/26 03:11:08;;;;;;;2.73;2.53;;;11.70;99.90;;;;;;5075252;28;20259;-69
2022/05/26 03:13:35;;;;;;;2.50;2.30;;;11.70;99.90;;;;;;5075037;28;20205;-70
2022/05/26 03:16:02;;;;;;;4.43;2.67;;;11.70;99.90;;;;;;5074391;28;20193;-70
2022/05/26 03:18:30;;;;;;;2.77;2.53;;;11.80;99.90;;;;;;5073083;28;20575;-69
2022/05/26 03:20:59;;;;;;;2.97;2.67;;;11.80;99.90;;;;;;5077616;28;20656;-70
2022/05/26 03:23:27;;;;;;;3.47;2.80;;;11.90;99.90;;;;;;5078961;28;20679;-69
2022/05/26 03:25:56;;;;;;;3.00;2.70;;;11.90;99.90;;;;;;5076928;28;20241;-69
2022/05/26 03:28:23;;;;;;;3.30;2.90;;;11.90;99.90;;;;;;5076689;28;20208;-69
2022/05/26 03:30:50;;;;;;;3.53;3.23;;;11.90;99.90;;;;;;5077187;28;20288;-70
2022/05/26 03:33:17;;;;;;;3.70;3.27;;;12.00;99.90;;;;;;5077255;28;20505;-69
2022/05/26 03:41:15;;;;;;;3.90;3.60;;;12.00;99.90;;;;;;5075711;28;20286;-69
2022/05/26 03:43:45;;;;;;;4.60;4.20;;;12.10;99.90;;;;;;5077119;28;20243;-69
2022/05/26 03:46:12;;;;;;;4.47;4.07;;;12.20;99.90;;;;;;5082790;28;20229;-69
2022/05/26 03:48:40;;;;;;;4.93;4.23;;;12.20;99.90;;;;;;5075763;28;20223;-69
2022/05/26 03:51:07;;;;;;;5.50;4.73;;;12.30;99.90;;;;;;5079196;28;20202;-69
2022/05/26 03:53:36;;;;;;;6.13;5.03;;;12.30;99.90;;;;;;5078613;28;20220;-69
2022/05/26 03:56:06;;;;;;;6.00;5.50;;;12.30;99.90;;;;;;5078503;28;20210;-68
2022/05/26 03:58:35;;;;;;;6.97;5.90;;;12.40;99.90;;;;;;5078425;28;20197;-71
2022/05/26 04:01:03;;;;;;;6.07;5.57;;;12.40;99.90;;;;;;5080290;28;20240;-71
2022/05/26 04:03:30;;;;;;;6.37;5.77;;;12.50;99.90;;;;;;5078719;28;20732;-69
2022/05/26 04:05:57;;;;;;;6.63;6.03;;;12.60;99.90;;;;;;5081644;28;20742;-70
2022/05/26 04:08:24;;;;;;;7.17;6.40;;;12.60;99.90;;;;;;5090456;28;20265;-69
2022/05/26 04:10:52;;;;;;;8.50;6.70;;;12.60;99.90;;;;;;5078436;28;20224;-70
2022/05/26 04:13:19;;;;;;;8.60;6.93;;;12.70;99.90;;;;;;5070310;28;20213;-69
2022/05/26 04:15:46;;;;;;;6.93;6.23;;;12.80;99.90;;;;;;5074867;28;20201;-69
2022/05/26 04:18:13;;;;;;;7.20;6.50;;;12.80;99.90;;;;;;5075610;28;20208;-69
2022/05/26 04:20:40;;;;;;;7.70;6.90;;;12.90;99.90;;;;;;5081112;28;20255;-69
2022/05/26 04:23:08;;;;;;;7.37;6.67;;;13.00;99.90;;;;;;5077207;28;20264;-69
2022/05/26 04:25:35;;;;;;;7.50;6.70;;;13.00;99.90;;;;;;5076596;28;20205;-69
2022/05/26 04:28:03;;;;;;;7.30;6.60;;;13.10;99.90;;;;;;5090358;28;20201;-69
2022/05/26 04:30:30;;;;;;;8.53;6.93;;;13.10;99.90;;;;;;5078387;28;20233;-70
2022/05/26 04:32:57;;;;;;;7.97;7.17;;;13.20;99.90;;;;;;5074792;28;20213;-70
2022/05/26 04:35:24;;;;;;;7.53;6.83;;;13.20;99.90;;;;;;5076929;28;20233;-69
2022/05/26 04:37:51;;;;;;;8.47;7.57;;;13.30;99.90;;;;;;5078777;28;20681;-69
2022/05/26 04:40:18;;;;;;;10.23;7.40;;;13.40;99.90;;;;;;5084092;28;20198;-69
2022/05/26 04:42:45;;;;;;;8.40;7.00;;;13.40;99.90;;;;;;5086725;28;20281;-70
2022/05/26 04:45:14;;;;;;;8.77;7.53;;;13.50;99.90;;;;;;5079862;28;20632;-69
2022/05/26 04:47:42;;;;;;;8.07;7.27;;;13.50;99.90;;;;;;5072615;28;20547;-70
2022/05/26 04:50:11;;;;;;;7.40;6.53;;;13.60;99.90;;;;;;5077260;28;20239;-70
2022/05/26 04:52:38;;;;;;;8.30;7.50;;;13.70;99.90;;;;;;5077353;28;20255;-70
2022/05/26 04:55:06;;;;;;;7.43;6.73;;;13.70;99.90;;;;;;5078278;28;20207;-70
2022/05/26 04:57:34;;;;;;;8.13;7.33;;;13.80;99.90;;;;;;5070882;28;20202;-70
2022/05/26 05:00:00;;;;;;;7.83;7.03;;;13.90;99.90;;;;;;5077295;28;20213;-71
2022/05/26 05:02:30;;;;;;;9.80;7.93;;;14.00;99.90;;;;;;5076471;28;20227;-70
2022/05/26 05:04:57;;;;;;;8.37;7.57;;;14.00;99.90;;;;;;5078236;28;20266;-69
2022/05/26 05:07:24;;;;;;;9.83;7.33;;;14.10;99.90;;;;;;5074595;28;20207;-69
2022/05/26 05:09:51;;;;;;;9.83;8.33;;;14.10;99.90;;;;;;5077088;28;20209;-70
2022/05/26 05:12:20;;;;;;;8.77;7.70;;;14.20;99.90;;;;;;5073309;28;20208;-70
2022/05/26 05:14:49;;;;;;;8.67;7.77;;;14.30;99.90;;;;;;5077030;28;20332;-69
2022/05/26 05:17:18;;;;;;;9.20;8.30;;;14.30;99.90;;;;;;5067796;28;20244;-69
2022/05/26 05:19:47;;;;;;;9.53;8.27;;;14.40;99.90;;;;;;5076310;28;20783;-69
2022/05/26 05:22:19;;;;;;;11.43;8.87;;;14.50;99.90;;;;;;5071617;28;20233;-70
2022/05/26 05:24:52;;;;;;;8.43;7.63;;;14.50;99.90;;;;;;5071922;28;20224;-70
2022/05/26 05:27:24;;;;;;;9.27;8.37;;;14.60;99.90;;;;;;5072804;28;20201;-69
2022/05/26 05:29:54;;;;;;;9.70;8.57;;;14.60;99.90;;;;;;5075262;28;20235;-69
2022/05/26 05:32:27;;;;;;;8.87;7.97;;;14.70;99.90;;;;;;5075129;28;20221;-70
2022/05/26 05:35:02;;;;;;;9.33;8.40;;;14.80;99.90;;;;;;5076857;28;20284;-70
2022/05/26 05:37:31;;;;;;;9.33;8.37;;;14.90;99.90;;;;;;5075580;28;20207;-69
2022/05/26 05:39:58;;;;;;;9.10;8.20;;;14.90;99.90;;;;;;5074777;28;20269;-70
2022/05/26 05:42:24;;;;;;;11.03;8.93;;;14.90;99.90;;;;;;5076363;28;20256;-71
2022/05/26 05:44:51;;;;;;;9.00;7.67;;;15.00;99.90;;;;;;5080843;28;20701;-71
2022/05/26 05:47:18;;;;;;;9.60;8.63;;;15.10;99.90;;;;;;5071066;28;20277;-70
2022/05/26 05:49:45;;;;;;;9.83;8.30;;;15.20;99.90;;;;;;5083318;28;20231;-71
2022/05/26 05:52:21;;;;;;;15.60;8.10;;;15.20;99.90;;;;;;5073930;28;20296;-70
2022/05/26 05:54:48;;;;;;;9.40;8.47;;;15.30;99.90;;;;;;5076456;28;20200;-72
2022/05/26 05:57:15;;;;;;;8.43;7.53;;;15.40;99.90;;;;;;5075691;28;20233;-71
2022/05/26 05:59:41;;;;;;;8.07;7.27;;;15.40;99.90;;;;;;5083663;28;20288;-69
2022/05/26 06:02:09;;;;;;;8.97;7.80;;;15.50;99.90;;;;;;5081696;28;20304;-70
2022/05/26 06:04:41;;;;;;;8.20;7.40;;;15.60;99.90;;;;;;5074248;28;20301;-70
2022/05/26 06:07:09;;;;;;;9.37;7.80;;;15.80;99.90;;;;;;5068246;28;20292;-72
2022/05/26 06:09:37;;;;;;;9.30;7.23;;;16.00;99.90;;;;;;5079992;28;20247;-70
2022/05/26 06:12:05;;;;;;;11.23;7.10;;;16.20;99.90;;;;;;5091206;28;20283;-70
2022/05/26 06:14:32;;;;;;;7.30;5.83;;;16.40;99.90;;;;;;5082329;28;20307;-71
2022/05/26 06:17:00;;;;;;;8.13;6.47;;;16.50;99.90;;;;;;5068525;28;20693;-71
2022/05/26 06:19:27;;;;;;;8.10;6.07;;;16.60;99.90;;;;;;5081425;28;20292;-73
2022/05/26 06:21:54;;;;;;;10.03;6.80;;;16.70;99.90;;;;;;5081605;28;20209;-72
2022/05/26 06:24:25;;;;;;;6.87;5.93;;;16.70;99.90;;;;;;5078425;28;20226;-70
2022/05/26 06:26:53;;;;;;;6.57;5.50;;;16.80;99.90;;;;;;5079718;28;20213;-70
2022/05/26 06:37:38;;;;;;;7.93;5.17;;;16.90;99.90;;;;;;5070866;28;20228;-71
2022/05/26 06:40:07;;;;;;;5.75;5.15;;;16.90;99.90;;;;;;5068237;28;20234;-70
2022/05/26 06:42:35;;;;;;;6.67;4.93;;;16.90;99.90;;;;;;5074336;28;20236;-71
2022/05/26 06:45:02;;;;;;;5.30;4.80;;;16.90;99.90;;;;;;5070974;28;20227;-72
2022/05/26 06:47:29;;;;;;;6.00;5.30;;;16.90;99.90;;;;;;5074732;28;20643;-70
2022/05/26 06:49:56;;;;;;;8.47;6.60;;;17.00;99.90;;;;;;5070690;28;20233;-69
2022/05/26 06:52:25;;;;;;;5.30;4.80;;;17.00;99.90;;;;;;5072463;28;20274;-71
2022/05/26 06:54:52;;;;;;;5.80;5.03;;;17.10;99.90;;;;;;5075319;28;20304;-68
2022/05/26 06:57:19;;;;;;;4.90;4.40;;;17.20;99.90;;;;;;5074831;28;20236;-67
2022/05/26 06:59:47;;;;;;;7.03;4.70;;;17.20;99.90;;;;;;5080941;28;20292;-72
2022/05/26 07:02:15;;;;;;;4.78;4.25;;;17.30;99.90;;;;;;5072465;28;20201;-69
2022/05/26 07:04:43;;;;;;;5.32;4.65;;;17.40;99.90;;;;;;5073118;28;20284;-71
2022/05/26 07:07:13;;;;;;;5.50;5.00;;;17.50;99.90;;;;;;5092533;28;20208;-70
2022/05/26 07:09:40;;;;;;;8.80;4.53;;;17.60;99.90;;;;;;5078917;28;20245;-71
2022/05/26 07:12:07;;;;;;;6.75;4.55;;;17.60;99.90;;;;;;5078737;28;20213;-68
2022/05/26 07:14:34;;;;;;;4.85;4.30;;;17.70;99.90;;;;;;5077786;28;20329;-70
2022/05/26 07:17:03;;;;;;;8.40;4.82;;;17.80;99.90;;;;;;5077257;28;20213;-68
2022/05/26 07:19:34;;;;;;;5.15;4.20;;;17.90;99.90;;;;;;5069578;28;20324;-70
2022/05/26 07:22:01;;;;;;;4.32;3.63;;;18.00;99.90;;;;;;5068713;28;20227;-69
2022/05/26 07:24:28;;;;;;;4.78;3.85;;;18.00;99.90;;;;;;5076288;28;20263;-68
2022/05/26 07:26:55;;;;;;;6.28;4.03;;;18.10;99.90;;;;;;5081398;28;20213;-69
2022/05/26 07:29:22;;;;;;;4.63;4.20;;;18.20;99.90;;;;;;5071983;28;20275;-69
2022/05/26 07:31:49;;;;;;;4.88;4.03;;;18.30;99.90;;;;;;5071972;28;20230;-67
2022/05/26 07:34:18;;;;;;;4.13;3.30;;;18.40;99.90;;;;;;5078583;28;20201;-70
2022/05/26 07:42:18;;;;;;;4.10;3.70;;;18.60;99.90;;;;;;5076239;28;20200;-70
2022/05/26 07:44:49;;;;;;;3.25;2.95;;;18.70;99.90;;;;;;5076618;28;20235;-70
2022/05/26 07:47:16;;;;;;;5.13;3.22;;;18.80;99.90;;;;;;5083699;28;20280;-70
2022/05/26 07:49:47;;;;;;;6.30;3.00;;;19.00;99.90;;;;;;5086332;28;20284;-70
2022/05/26 07:52:16;;;;;;;3.08;2.78;;;19.00;99.90;;;;;;5076786;28;20209;-71
2022/05/26 07:54:43;;;;;;;2.50;2.30;;;19.20;99.90;;;;;;5070578;28;20254;-69
2022/05/26 07:57:18;;;;;;;2.00;1.90;;;19.30;99.90;;;;;;5087130;28;20283;-72
2022/05/26 07:59:45;;;;;;;2.42;2.17;;;19.40;99.90;;;;;;5082635;28;20240;-69
2022/05/26 08:02:12;;;;;;;7.00;2.63;;;19.50;99.90;;;;;;5077337;28;20292;-71
2022/05/26 08:04:39;;;;;;;3.45;2.05;;;19.70;99.90;;;;;;5074837;28;20233;-70
2022/05/26 08:07:08;;;;;;;4.72;2.22;;;19.70;99.90;;;;;;5071319;28;20292;-71
2022/05/26 08:09:37;;;;;;;4.20;2.38;;;19.80;99.90;;;;;;5085427;28;20209;-73
2022/05/26 08:12:06;;;;;;;3.80;2.28;;;19.90;99.90;;;;;;5076281;28;20205;-70
2022/05/26 08:14:33;;;;;;;2.25;2.03;;;20.00;99.90;;;;;;5071230;28;20240;-71
2022/05/26 08:17:01;;;;;;;2.03;1.85;;;20.10;99.90;;;;;;5075669;28;20215;-73
2022/05/26 08:19:29;;;;;;;2.65;1.52;;;20.20;99.90;;;;;;5083756;28;20207;-70
2022/05/26 08:21:57;;;;;;;1.92;1.48;;;20.30;99.90;;;;;;5076760;28;20213;-69
2022/05/26 08:24:26;;;;;;;1.67;1.30;;;20.40;99.90;;;;;;5075845;28;20226;-69
2022/05/26 08:26:53;;;;;;;1.40;1.30;;;20.50;98.90;;;;;;5084195;28;20669;-70
2022/05/26 08:29:20;;;;;;;4.22;1.40;;;20.60;97.70;;;;;;5089570;28;20528;-69
2022/05/26 08:31:47;;;;;;;3.33;2.58;;;20.70;96.90;;;;;;5085025;28;20202;-70
2022/05/26 08:34:14;;;;;;;3.58;1.73;;;20.80;96.00;;;;;;5075460;28;20292;-70
2022/05/26 08:36:41;;;;;;;7.32;1.80;;;20.80;95.20;;;;;;5075618;28;20207;-70
2022/05/26 08:39:08;;;;;;;2.10;1.63;;;20.90;94.50;;;;;;5073061;28;20272;-69
2022/05/26 08:41:41;;;;;;;3.78;2.70;;;20.90;94.00;;;;;;5074867;28;20245;-70
2022/05/26 08:44:11;;;;;;;2.88;1.48;;;21.00;93.80;;;;;;5079461;28;20217;-70
2022/05/26 08:46:44;;;;;;;1.30;1.20;;;21.00;93.20;;;;;;5073989;28;20206;-71
2022/05/26 08:49:18;;;;;;;3.03;1.20;;;21.10;92.70;;;;;;5087525;28;20235;-70
2022/05/26 08:51:49;;;;;;;1.80;1.20;;;21.20;93.00;;;;;;5075644;28;20197;-72
2022/05/26 08:54:22;;;;;;;2.28;1.67;;;21.30;91.40;;;;;;5074646;28;20284;-72
2022/05/26 08:56:51;;;;;;;2.25;1.15;;;21.40;90.00;;;;;;5083433;28;20196;-72
2022/05/26 08:59:23;;;;;;;1.95;1.20;;;21.40;89.40;;;;;;5083235;28;20216;-71
2022/05/26 09:01:50;;;;;;;1.45;1.30;;;21.40;87.80;;;;;;5073251;28;20205;-70
2022/05/26 09:04:17;;;;;;;2.25;1.20;;;21.60;86.50;;;;;;5080527;28;20232;-72
2022/05/26 09:15:10;;;;;;;1.88;1.33;;;22.20;84.20;;;;;;5067364;28;20244;-71
2022/05/26 09:17:40;;;;;;;3.40;1.20;;;22.50;83.10;;;;;;5076525;28;20208;-73
2022/05/26 09:20:26;;;;;;;1.88;1.02;;;22.60;79.80;;;;;;5076877;28;20209;-72
2022/05/26 09:22:53;;;;;;;2.28;0.90;;;22.70;77.30;;;;;;5073077;28;20216;-72
2022/05/26 09:25:35;;;;;;;1.88;1.20;;;22.70;75.90;;;;;;5066945;28;20698;-71
2022/05/26 09:28:08;;;;;;;1.15;0.82;;;22.80;74.10;;;;;;5075943;28;20211;-73
2022/05/26 09:30:36;;;;;;;1.63;1.27;;;22.80;73.80;;;;;;5073843;28;20217;-73
2022/05/26 09:33:18;;;;;;;4.68;1.15;;;22.90;73.10;;;;;;5076730;28;20647;-72
2022/05/26 09:35:48;;;;;;;2.45;0.95;;;22.90;71.40;;;;;;5076964;28;20201;-72
2022/05/26 09:38:21;;;;;;;5.88;1.33;;;23.00;71.00;;;;;;5064419;28;20248;-72
2022/05/26 09:40:48;;;;;;;1.02;0.80;;;23.10;71.10;;;;;;5069317;28;20607;-72
2022/05/26 09:43:27;;;;;;;0.90;0.73;;;23.20;71.00;;;;;;5068690;28;20698;-70
2022/05/26 09:45:56;;;;;;;2.08;1.10;;;23.20;69.40;;;;;;5075322;28;20198;-71
2022/05/26 09:48:29;;;;;;;3.20;0.95;;;23.10;68.90;;;;;;5075795;28;20296;-71
2022/05/26 09:51:08;;;;;;;3.63;1.52;;;23.10;69.80;;;;;;5075376;28;20229;-72
2022/05/26 09:53:38;;;;;;;1.45;0.93;;;23.10;69.50;;;;;;5074606;28;20227;-72
2022/05/26 09:56:07;;;;;;;1.42;1.02;;;23.10;68.50;;;;;;5071423;28;20203;-72
2022/05/26 09:58:39;;;;;;;1.02;0.90;;;23.10;65.80;;;;;;5075036;28;20205;-72
2022/05/26 10:01:29;;;;;;;1.40;0.90;;;23.00;66.00;;;;;;5076418;28;20209;-72
2022/05/26 10:04:04;;;;;;;2.88;1.20;;;23.00;66.20;;;;;;5073832;28;20243;-72
2022/05/26 10:06:35;;;;;;;2.15;1.17;;;23.00;66.50;;;;;;5072652;28;20243;-72
2022/05/26 10:09:14;;;;;;;1.15;1.00;;;22.90;67.00;;;;;;5079009;28;20659;-72
2022/05/26 10:11:54;;;;;;;1.48;1.15;;;22.70;66.50;;;;;;5077982;28;20342;-71
2022/05/26 10:14:45;;;;;;;2.25;1.00;;;22.60;66.50;;;;;;5070124;28;20237;-71
2022/05/26 10:17:25;;;;;;;1.77;1.15;;;22.50;67.00;;;;;;5074099;28;20243;-71
2022/05/26 10:20:24;;;;;;;1.33;0.80;;;22.50;68.10;;;;;;5075765;28;20201;-72
2022/05/26 10:23:02;;;;;;;1.77;0.90;;;22.60;68.10;;;;;;5076168;28;20198;-71
2022/05/26 10:25:35;;;;;;;1.27;0.80;;;22.80;66.60;;;;;;5075335;28;20244;-72
2022/05/26 10:28:28;;;;;;;2.55;1.20;;;22.80;66.10;;;;;;5072858;28;20277;-73
2022/05/26 10:31:04;;;;;;;2.00;1.20;;;22.70;66.30;;;;;;5069540;28;20701;-73
2022/05/26 10:33:58;;;;;;;1.38;0.90;;;22.60;66.50;;;;;;5074422;28;20233;-73
2022/05/26 10:36:36;;;;;;;1.25;1.00;;;22.40;66.70;;;;;;5077240;28;20212;-71
2022/05/26 10:39:08;;;;;;;2.85;1.05;;;22.30;67.70;;;;;;5076758;28;20247;-73
2022/05/26 10:41:41;;;;;;;1.73;1.10;;;22.40;68.30;;;;;;5063768;28;20674;-71
2022/05/26 10:44:18;;;;;;;4.20;0.80;;;22.30;68.30;;;;;;5074300;28;20248;-72
2022/05/26 10:46:52;;;;;;;1.60;0.90;;;22.20;68.70;;;;;;5069406;28;20741;-71
2022/05/26 10:49:24;;;;;;;1.13;0.98;;;22.20;69.10;;;;;;5074953;28;20201;-72
2022/05/26 10:51:56;;;;;;;1.30;1.20;;;22.20;69.00;;;;;;5075656;28;20284;-71
2022/05/26 10:54:33;;;;;;;1.70;0.80;;;22.10;68.80;;;;;;5085988;28;20194;-72
2022/05/26 10:57:06;;;;;;;1.25;1.08;;;22.00;69.10;;;;;;5073151;28;20663;-71
2022/05/26 10:59:40;;;;;;;2.83;1.05;;;21.90;69.80;;;;;;5072162;28;20304;-72
2022/05/26 11:02:16;;;;;;;3.10;1.02;;;21.80;70.00;;;;;;5075241;28;20334;-74
2022/05/26 11:04:50;;;;;;;2.78;1.10;;;21.80;70.10;;;;;;5078530;28;20208;-75
2022/05/26 11:07:21;;;;;;;1.95;1.10;;;21.80;70.40;;;;;;5080530;28;20225;-74
2022/05/26 11:09:53;;;;;;;3.38;1.30;;;21.70;70.90;;;;;;5083039;28;20306;-76
2022/05/26 11:12:27;;;;;;;6.90;1.40;;;21.60;71.30;;;;;;5071437;28;20228;-75
2022/05/26 11:17:47;;;;;;;2.50;1.05;;;21.40;73.10;;;;;;5069599;28;20200;-75
2022/05/26 11:20:20;;;;;;;1.80;1.08;;;21.50;73.40;;;;;;5073973;28;20192;-74
2022/05/26 11:22:48;;;;;;;2.00;1.15;;;21.70;73.70;;;;;;5070746;28;20201;-72
2022/05/26 11:25:17;;;;;;;4.78;1.33;;;22.00;73.90;;;;;;5072351;28;20227;-71
2022/05/26 11:27:49;;;;;;;1.65;1.05;;;22.30;72.60;;;;;;5073017;28;20205;-71
2022/05/26 11:36:09;;;;;;;5.43;2.50;;;22.60;70.80;;;;;;5082790;28;20240;-73
2022/05/26 11:38:41;;;;;;;1.63;1.50;;;22.30;71.30;;;;;;5077500;28;20198;-71
2022/05/26 11:41:12;;;;;;;2.40;1.88;;;22.10;72.50;;;;;;5072273;28;20202;-72
2022/05/26 11:43:44;;;;;;;4.78;1.35;;;22.10;73.80;;;;;;5070630;28;20247;-72
2022/05/26 11:46:13;;;;;;;1.67;1.10;;;22.20;74.60;;;;;;5057486;28;20202;-70
2022/05/26 11:48:45;;;;;;;2.75;1.30;;;22.30;74.90;;;;;;5078463;28;20193;-70
2022/05/26 11:51:40;;;;;;;2.83;1.33;;;22.50;74.90;;;;;;5075617;28;20221;-70
2022/05/26 11:54:08;;;;;;;1.58;0.93;;;22.50;73.70;;;;;;5072950;28;20229;-71
2022/05/26 11:56:50;;;;;;;2.67;1.60;;;22.60;73.40;;;;;;5076508;28;20248;-70
2022/05/26 11:59:46;;;;;;;2.42;1.20;;;22.80;72.50;;;;;;5071247;28;20197;-70
2022/05/26 12:02:36;;;;;;;1.33;1.00;;;23.00;72.00;;;;;;5076095;28;20212;-69
2022/05/26 12:05:40;;;;;;;3.08;1.55;;;23.30;72.40;;;;;;5077739;28;20232;-70
2022/05/26 12:08:29;;;;;;;2.17;1.33;;;23.50;70.70;;;;;;5060792;28;20300;-70
2022/05/26 12:10:59;;;;;;;2.90;1.10;;;23.50;70.30;;;;;;5079402;28;20197;-70
2022/05/26 12:13:33;;;;;;;1.45;1.02;;;23.50;69.90;;;;;;5075787;28;20213;-69
2022/05/26 12:16:24;;;;;;;7.53;1.10;;;23.30;69.10;;;;;;5071765;28;20641;-69
2022/05/26 12:18:55;;;;;;;2.13;1.10;;;23.20;69.00;;;;;;5083326;28;20196;-69
2022/05/26 12:21:42;;;;;;;1.95;1.00;;;23.30;69.70;;;;;;5082308;28;20705;-69
2022/05/26 12:24:58;;;;;;;2.05;0.98;;;23.30;68.40;;;;;;5074568;28;20248;-69
2022/05/26 12:28:02;;;;;;;3.20;0.93;;;23.40;67.90;;;;;;5078822;28;20197;-68
2022/05/26 12:31:08;;;;;;;3.08;0.88;;;23.50;67.20;;;;;;5076273;28;20289;-68
2022/05/26 12:33:56;;;;;;;3.25;0.90;;;23.70;65.40;;;;;;5078377;28;20205;-68
2022/05/26 12:36:36;;;;;;;2.47;0.80;;;23.70;64.10;;;;;;5075787;28;20199;-67
2022/05/26 12:39:28;;;;;;;1.17;0.60;;;23.80;64.20;;;;;;5084921;28;20559;-69
2022/05/26 12:42:00;;;;;;;2.53;0.80;;;23.80;64.10;;;;;;5046639;28;20209;-69
2022/05/26 12:44:46;;;;;;;2.38;0.90;;;23.80;64.10;;;;;;5080438;28;20221;-70
2022/05/26 12:47:28;;;;;;;3.15;0.65;;;23.90;65.20;;;;;;5070985;28;20284;-69
2022/05/26 12:50:01;;;;;;;1.80;0.80;;;24.00;64.80;;;;;;5074649;28;20288;-69
2022/05/26 12:52:34;;;;;;;1.00;0.90;;;24.20;64.90;;;;;;5074044;28;20638;-69
2022/05/26 12:55:17;;;;;;;2.55;0.82;;;24.30;64.20;;;;;;5073158;28;20364;-70
2022/05/26 12:57:48;;;;;;;5.20;1.38;;;24.30;64.00;;;;;;5079199;28;20266;-70
2022/05/26 13:00:27;;;;;;;1.30;1.10;;;24.20;64.70;;;;;;5084384;28;20198;-70
2022/05/26 13:02:59;;;;;;;2.38;1.05;;;24.10;65.00;;;;;;5069803;28;20295;-69
2022/05/26 13:05:32;;;;;;;4.05;1.10;;;24.00;65.00;;;;;;5078631;28;20307;-68
2022/05/26 13:08:01;;;;;;;2.42;0.98;;;23.80;65.20;;;;;;5080050;28;20662;-68
2022/05/26 13:10:36;;;;;;;1.75;0.80;;;23.70;66.10;;;;;;5072640;28;20662;-70
2022/05/26 13:13:06;;;;;;;1.75;0.90;;;23.60;66.50;;;;;;5076098;28;20222;-70
2022/05/26 13:15:33;;;;;;;1.58;0.80;;;23.50;66.20;;;;;;5075101;28;20260;-70
2022/05/26 13:18:02;;;;;;;0.70;0.63;;;23.50;65.80;;;;;;5073789;28;20228;-69
2022/05/26 13:20:36;;;;;;;3.58;1.17;;;23.50;65.70;;;;;;5073206;28;20342;-73
2022/05/26 13:23:03;;;;;;;1.50;0.80;;;23.40;65.80;;;;;;5074165;28;20213;-73
2022/05/26 13:25:33;;;;;;;3.33;0.77;;;23.40;65.80;;;;;;5076269;28;20278;-70
2022/05/26 13:28:02;;;;;;;1.58;0.90;;;23.50;65.20;;;;;;5076856;28;20286;-71
2022/05/26 13:33:49;;;;;;;2.20;0.90;;;23.40;65.20;;;;;;5010088;28;20218;-72
2022/05/26 13:36:18;;;;;;;2.03;0.98;;;23.20;65.40;;;;;;5007308;28;20290;-72
2022/05/26 13:38:47;;;;;;;1.83;1.00;;;23.30;66.30;;;;;;5046483;28;20228;-72
2022/05/26 13:41:19;;;;;;;2.00;0.90;;;23.30;66.10;;;;;;5073006;28;20220;-72
2022/05/26 13:43:48;;;;;;;2.92;1.20;;;23.30;66.20;;;;;;5073095;28;20205;-71
2022/05/26 13:46:20;;;;;;;6.85;1.38;;;23.10;65.90;;;;;;5073420;28;20319;-71
2022/05/26 13:48:55;;;;;;;3.83;1.30;;;23.10;66.10;;;;;;5069933;28;20746;-70
2022/05/26 13:51:25;;;;;;;1.02;0.93;;;22.90;65.90;;;;;;5068504;28;20201;-71